Pagina principale
METAR-TAF:

METAR-TAF

Aeroporti :

Aeroporto di Strasburgo-Entzheim

Strasburgo, Francia

latitudine: 48-33N, longitudine: 007-38E, altezza: 153 m

Osservazione

Il bollettino è stato emesso 29 minuti fa, alle 14:00 UTC
Vento 3 kt da nord-ovest, variando fra ovest e est/nord-est
Temperature 12°C
Umidità 40%
Pressione 1030 hPa
Visibilità 10 km o più
Nuvoloso ad un'altezza di 5200 ft

METAR: LFST 261400Z AUTO 32003KT 260V060 9999 BKN052 12/M01 Q1030 NOSIG

Ora: 15:29 (14:29 UTC)

Previsione

Il bollettino è stato emesso 3 ore e 26 minuti fa, alle 11:03 UTC
Previsione valida dal 26 alle 12 UTC al 27 alle 12 UTC
Vento 7 kt da nord
Visibilità 10 km o più
Poco nuvoloso ad un'altezza di 4000 ft
Nubi sparse ad un'altezza di 5500 ft

TAF: LFST 261103Z 2612/2712 01007KT 9999 FEW040 SCT055

Osservazioni e previsioni meteorologiche di più di 4000 aeroporti (messaggi METAR e TAF).

Le stazioni disponibili sono rappresentate dai dischi gialli e rossi sulla carta.

Puntare il mouse per vedere il nome della stazione.

Clicca sopra per visualizzare le osservazioni e previsioni meteorologiche.

Per cambiare la mappa : fare clic sui pulsanti verdi con una croce nera per ingrandire, il pulsante verde con un trattino per diminuire, o sulla freccia verde per le mappe adiacenti.


METAR-TAF: